Main page
METAR-TAF:

METAR-TAF

Airports :

Eagle Airport

Eagle, Alaska, United States

latitude: 64-46-35N, longitude: 141-09-03W, elevation: 268 m

Current weather observation

The report was made 1 hour and 0 minutes ago, at 06:53 UTC
Calm wind
Temperature 9°C
Humidity 87%
Pressure 1006 hPa
Visibility: 16.1 km
Broken clouds at a height of 3400 ft
Overcast at a height of 6000 ft

METAR: PAEG 240653Z AUTO 00000KT 10SM BKN034 OVC060 09/07 A2970 RMK AO2 SLP061 T00890072 TSNO $

Time: 23:53 (07:53 UTC)


TAF: missing

Weather observations and forecasts of more than 4000 airports (METAR and TAF reports).

The available stations are represented by yellow and red dots on the map.

Hover mouse over dot to see the name of the station.

Then click to see weather observations and forecasts.

To change the map : click on the green buttons with a black cross to zoom in, on the green button with a dash to zoom out, or on the green arrows for adjacent maps.


METAR-TAF: